sensor_id;sensor_type;location;lat;lon;timestamp;temperature;humidity
17726;DHT22;8983;53.156;17.960;2023-07-31T00:00:02;20.20;99.90
17726;DHT22;8983;53.156;17.960;2023-07-31T00:02:30;20.20;99.90
17726;DHT22;8983;53.156;17.960;2023-07-31T00:04:59;20.20;99.90
17726;DHT22;8983;53.156;17.960;2023-07-31T00:07:27;20.20;99.90
17726;DHT22;8983;53.156;17.960;2023-07-31T00:09:55;20.10;99.90
17726;DHT22;8983;53.156;17.960;2023-07-31T00:12:24;20.10;99.90
17726;DHT22;8983;53.156;17.960;2023-07-31T00:14:52;20.10;99.90
17726;DHT22;8983;53.156;17.960;2023-07-31T00:17:22;20.10;99.90
17726;DHT22;8983;53.156;17.960;2023-07-31T00:19:50;20.10;99.90
17726;DHT22;8983;53.156;17.960;2023-07-31T00:22:18;20.10;99.90
17726;DHT22;8983;53.156;17.960;2023-07-31T00:24:46;20.10;99.90
17726;DHT22;8983;53.156;17.960;2023-07-31T00:27:14;20.10;99.90
17726;DHT22;8983;53.156;17.960;2023-07-31T00:29:42;20.20;99.90
17726;DHT22;8983;53.156;17.960;2023-07-31T00:32:10;20.20;99.90
17726;DHT22;8983;53.156;17.960;2023-07-31T00:34:40;20.20;99.90
17726;DHT22;8983;53.156;17.960;2023-07-31T00:37:08;20.20;99.90
17726;DHT22;8983;53.156;17.960;2023-07-31T00:39:36;20.20;99.90
17726;DHT22;8983;53.156;17.960;2023-07-31T00:42:04;20.30;99.90
17726;DHT22;8983;53.156;17.960;2023-07-31T00:44:32;20.20;99.90
17726;DHT22;8983;53.156;17.960;2023-07-31T00:47:01;20.20;99.90
17726;DHT22;8983;53.156;17.960;2023-07-31T00:49:29;20.20;99.90
17726;DHT22;8983;53.156;17.960;2023-07-31T00:51:59;20.20;99.90
17726;DHT22;8983;53.156;17.960;2023-07-31T00:54:27;20.10;99.90
17726;DHT22;8983;53.156;17.960;2023-07-31T00:56:56;20.10;99.90
17726;DHT22;8983;53.156;17.960;2023-07-31T00:59:24;20.10;99.90
17726;DHT22;8983;53.156;17.960;2023-07-31T01:01:52;20.00;99.90
17726;DHT22;8983;53.156;17.960;2023-07-31T01:04:21;20.00;99.90
17726;DHT22;8983;53.156;17.960;2023-07-31T01:06:56;20.00;99.90
17726;DHT22;8983;53.156;17.960;2023-07-31T01:09:36;20.00;99.90
17726;DHT22;8983;53.156;17.960;2023-07-31T01:12:07;20.00;99.90
17726;DHT22;8983;53.156;17.960;2023-07-31T01:14:35;20.00;99.90
17726;DHT22;8983;53.156;17.960;2023-07-31T01:17:03;20.00;99.90
17726;DHT22;8983;53.156;17.960;2023-07-31T01:19:32;19.90;99.90
17726;DHT22;8983;53.156;17.960;2023-07-31T01:22:16;20.00;99.90
17726;DHT22;8983;53.156;17.960;2023-07-31T01:24:55;19.90;99.90
17726;DHT22;8983;53.156;17.960;2023-07-31T01:27:29;19.80;99.90
17726;DHT22;8983;53.156;17.960;2023-07-31T01:30:03;19.80;99.90
17726;DHT22;8983;53.156;17.960;2023-07-31T01:32:39;19.70;99.90
17726;DHT22;8983;53.156;17.960;2023-07-31T01:35:08;19.70;99.90
17726;DHT22;8983;53.156;17.960;2023-07-31T01:37:36;19.60;99.90
17726;DHT22;8983;53.156;17.960;2023-07-31T01:40:06;19.60;99.90
17726;DHT22;8983;53.156;17.960;2023-07-31T01:42:35;19.60;99.90
17726;DHT22;8983;53.156;17.960;2023-07-31T01:45:04;19.60;99.90
17726;DHT22;8983;53.156;17.960;2023-07-31T01:47:32;19.50;99.90
17726;DHT22;8983;53.156;17.960;2023-07-31T01:50:01;19.40;99.90
17726;DHT22;8983;53.156;17.960;2023-07-31T01:52:29;19.50;99.90
17726;DHT22;8983;53.156;17.960;2023-07-31T01:54:57;19.50;99.90
17726;DHT22;8983;53.156;17.960;2023-07-31T01:57:25;19.40;99.90
17726;DHT22;8983;53.156;17.960;2023-07-31T01:59:54;19.40;99.90
17726;DHT22;8983;53.156;17.960;2023-07-31T02:02:23;19.40;99.90
17726;DHT22;8983;53.156;17.960;2023-07-31T02:04:51;19.30;99.90
17726;DHT22;8983;53.156;17.960;2023-07-31T02:07:19;19.30;99.90
17726;DHT22;8983;53.156;17.960;2023-07-31T02:09:47;19.30;99.90
17726;DHT22;8983;53.156;17.960;2023-07-31T02:12:16;19.30;99.90
17726;DHT22;8983;53.156;17.960;2023-07-31T02:14:44;19.20;99.90
17726;DHT22;8983;53.156;17.960;2023-07-31T02:17:13;19.20;99.90
17726;DHT22;8983;53.156;17.960;2023-07-31T02:19:41;19.10;99.90
17726;DHT22;8983;53.156;17.960;2023-07-31T02:22:09;19.10;99.90
17726;DHT22;8983;53.156;17.960;2023-07-31T02:24:37;19.10;99.90
17726;DHT22;8983;53.156;17.960;2023-07-31T02:27:06;18.90;99.90
17726;DHT22;8983;53.156;17.960;2023-07-31T02:29:34;19.00;99.90
17726;DHT22;8983;53.156;17.960;2023-07-31T02:32:02;19.00;99.90
17726;DHT22;8983;53.156;17.960;2023-07-31T02:34:31;19.00;99.90
17726;DHT22;8983;53.156;17.960;2023-07-31T02:37:00;19.00;99.90
17726;DHT22;8983;53.156;17.960;2023-07-31T02:39:28;19.00;99.90
17726;DHT22;8983;53.156;17.960;2023-07-31T02:41:56;18.90;99.90
17726;DHT22;8983;53.156;17.960;2023-07-31T02:44:24;18.90;99.90
17726;DHT22;8983;53.156;17.960;2023-07-31T02:46:52;18.90;99.90
17726;DHT22;8983;53.156;17.960;2023-07-31T02:49:20;18.80;99.90
17726;DHT22;8983;53.156;17.960;2023-07-31T02:51:49;18.80;99.90
17726;DHT22;8983;53.156;17.960;2023-07-31T02:54:17;18.70;99.90
17726;DHT22;8983;53.156;17.960;2023-07-31T02:56:47;18.70;99.90
17726;DHT22;8983;53.156;17.960;2023-07-31T02:59:16;18.70;99.90
17726;DHT22;8983;53.156;17.960;2023-07-31T03:01:44;18.60;99.90
17726;DHT22;8983;53.156;17.960;2023-07-31T03:04:12;18.60;99.90
17726;DHT22;8983;53.156;17.960;2023-07-31T03:06:44;18.60;99.90
17726;DHT22;8983;53.156;17.960;2023-07-31T03:09:13;18.70;99.90
17726;DHT22;8983;53.156;17.960;2023-07-31T03:11:41;18.60;99.90
17726;DHT22;8983;53.156;17.960;2023-07-31T03:14:09;18.70;99.90
17726;DHT22;8983;53.156;17.960;2023-07-31T03:16:37;18.70;99.90
17726;DHT22;8983;53.156;17.960;2023-07-31T03:19:06;18.70;99.90
17726;DHT22;8983;53.156;17.960;2023-07-31T03:21:34;18.70;99.90
17726;DHT22;8983;53.156;17.960;2023-07-31T03:24:02;18.70;99.90
17726;DHT22;8983;53.156;17.960;2023-07-31T03:26:32;18.70;99.90
17726;DHT22;8983;53.156;17.960;2023-07-31T03:29:00;18.70;99.90
17726;DHT22;8983;53.156;17.960;2023-07-31T03:31:28;18.70;99.90
17726;DHT22;8983;53.156;17.960;2023-07-31T03:33:57;18.70;99.90
17726;DHT22;8983;53.156;17.960;2023-07-31T03:36:25;18.70;99.90
17726;DHT22;8983;53.156;17.960;2023-07-31T03:38:53;18.70;99.90
17726;DHT22;8983;53.156;17.960;2023-07-31T03:41:21;18.70;99.90
17726;DHT22;8983;53.156;17.960;2023-07-31T03:43:51;18.70;99.90
17726;DHT22;8983;53.156;17.960;2023-07-31T03:46:19;18.70;99.90
17726;DHT22;8983;53.156;17.960;2023-07-31T03:48:48;18.70;99.90
17726;DHT22;8983;53.156;17.960;2023-07-31T03:51:16;18.70;99.90
17726;DHT22;8983;53.156;17.960;2023-07-31T03:53:45;18.60;99.90
17726;DHT22;8983;53.156;17.960;2023-07-31T03:56:13;18.60;99.90
17726;DHT22;8983;53.156;17.960;2023-07-31T03:58:41;18.60;99.90
17726;DHT22;8983;53.156;17.960;2023-07-31T04:01:11;18.60;99.90
17726;DHT22;8983;53.156;17.960;2023-07-31T04:03:39;18.60;99.90
17726;DHT22;8983;53.156;17.960;2023-07-31T04:06:07;18.70;99.90
17726;DHT22;8983;53.156;17.960;2023-07-31T04:08:35;18.70;99.90
17726;DHT22;8983;53.156;17.960;2023-07-31T04:11:03;18.70;99.90
17726;DHT22;8983;53.156;17.960;2023-07-31T04:13:31;18.70;99.90
17726;DHT22;8983;53.156;17.960;2023-07-31T04:16:00;18.70;99.90
17726;DHT22;8983;53.156;17.960;2023-07-31T04:18:29;18.70;99.90
17726;DHT22;8983;53.156;17.960;2023-07-31T04:20:59;18.70;99.90
17726;DHT22;8983;53.156;17.960;2023-07-31T04:23:28;18.70;99.90
17726;DHT22;8983;53.156;17.960;2023-07-31T04:25:56;18.60;99.90
17726;DHT22;8983;53.156;17.960;2023-07-31T04:28:24;18.60;99.90
17726;DHT22;8983;53.156;17.960;2023-07-31T04:30:53;18.60;99.90
17726;DHT22;8983;53.156;17.960;2023-07-31T04:33:21;18.60;99.90
17726;DHT22;8983;53.156;17.960;2023-07-31T04:35:53;18.60;99.90
17726;DHT22;8983;53.156;17.960;2023-07-31T04:38:21;18.60;99.90
17726;DHT22;8983;53.156;17.960;2023-07-31T04:40:50;18.50;99.90
17726;DHT22;8983;53.156;17.960;2023-07-31T04:43:18;18.50;99.90
17726;DHT22;8983;53.156;17.960;2023-07-31T04:45:46;18.50;99.90
17726;DHT22;8983;53.156;17.960;2023-07-31T04:48:15;18.60;99.90
17726;DHT22;8983;53.156;17.960;2023-07-31T04:50:43;18.50;99.90
17726;DHT22;8983;53.156;17.960;2023-07-31T04:53:12;18.50;99.90
17726;DHT22;8983;53.156;17.960;2023-07-31T04:55:40;18.60;99.90
17726;DHT22;8983;53.156;17.960;2023-07-31T04:58:08;18.50;99.90
17726;DHT22;8983;53.156;17.960;2023-07-31T05:00:36;18.50;99.90
17726;DHT22;8983;53.156;17.960;2023-07-31T05:03:04;18.60;99.90
17726;DHT22;8983;53.156;17.960;2023-07-31T05:05:33;18.70;99.90
17726;DHT22;8983;53.156;17.960;2023-07-31T05:08:01;18.70;99.90
17726;DHT22;8983;53.156;17.960;2023-07-31T05:10:31;18.80;99.90
17726;DHT22;8983;53.156;17.960;2023-07-31T05:12:59;18.80;99.90
17726;DHT22;8983;53.156;17.960;2023-07-31T05:15:27;18.80;99.90
17726;DHT22;8983;53.156;17.960;2023-07-31T05:17:55;18.80;99.90
17726;DHT22;8983;53.156;17.960;2023-07-31T05:20:23;18.80;99.90
17726;DHT22;8983;53.156;17.960;2023-07-31T05:22:51;18.90;99.90
17726;DHT22;8983;53.156;17.960;2023-07-31T05:25:20;18.90;99.90
17726;DHT22;8983;53.156;17.960;2023-07-31T05:27:49;18.80;99.90
17726;DHT22;8983;53.156;17.960;2023-07-31T05:30:17;18.90;99.90
17726;DHT22;8983;53.156;17.960;2023-07-31T05:32:45;18.90;99.90
17726;DHT22;8983;53.156;17.960;2023-07-31T05:35:13;18.80;99.90
17726;DHT22;8983;53.156;17.960;2023-07-31T05:37:41;18.80;99.90
17726;DHT22;8983;53.156;17.960;2023-07-31T05:40:10;18.80;99.90
17726;DHT22;8983;53.156;17.960;2023-07-31T05:42:38;18.80;99.90
17726;DHT22;8983;53.156;17.960;2023-07-31T05:45:08;18.80;99.90
17726;DHT22;8983;53.156;17.960;2023-07-31T05:47:36;18.80;99.90
17726;DHT22;8983;53.156;17.960;2023-07-31T05:50:05;18.80;99.90
17726;DHT22;8983;53.156;17.960;2023-07-31T05:52:33;18.80;99.90
17726;DHT22;8983;53.156;17.960;2023-07-31T05:55:01;18.90;99.90
17726;DHT22;8983;53.156;17.960;2023-07-31T05:57:30;18.90;99.90
17726;DHT22;8983;53.156;17.960;2023-07-31T05:59:58;19.00;99.90
17726;DHT22;8983;53.156;17.960;2023-07-31T06:02:27;19.00;99.90
17726;DHT22;8983;53.156;17.960;2023-07-31T06:04:59;19.00;99.90
17726;DHT22;8983;53.156;17.960;2023-07-31T06:07:28;19.10;99.90
17726;DHT22;8983;53.156;17.960;2023-07-31T06:09:57;19.10;99.90
17726;DHT22;8983;53.156;17.960;2023-07-31T06:12:30;19.10;99.90
17726;DHT22;8983;53.156;17.960;2023-07-31T06:14:58;19.10;99.90
17726;DHT22;8983;53.156;17.960;2023-07-31T06:17:27;19.20;99.90
17726;DHT22;8983;53.156;17.960;2023-07-31T06:19:56;19.10;99.90
17726;DHT22;8983;53.156;17.960;2023-07-31T06:22:25;19.00;99.90
17726;DHT22;8983;53.156;17.960;2023-07-31T06:24:53;19.10;99.90
17726;DHT22;8983;53.156;17.960;2023-07-31T06:27:21;19.10;99.90
17726;DHT22;8983;53.156;17.960;2023-07-31T06:29:49;19.10;99.90
17726;DHT22;8983;53.156;17.960;2023-07-31T06:32:17;19.20;99.90
17726;DHT22;8983;53.156;17.960;2023-07-31T06:34:46;19.30;99.90
17726;DHT22;8983;53.156;17.960;2023-07-31T06:37:14;19.30;99.90
17726;DHT22;8983;53.156;17.960;2023-07-31T06:39:43;19.40;99.90
17726;DHT22;8983;53.156;17.960;2023-07-31T06:42:11;19.50;99.90
17726;DHT22;8983;53.156;17.960;2023-07-31T06:44:39;19.60;99.90
17726;DHT22;8983;53.156;17.960;2023-07-31T06:47:07;19.70;99.90
17726;DHT22;8983;53.156;17.960;2023-07-31T06:49:35;19.80;99.90
17726;DHT22;8983;53.156;17.960;2023-07-31T06:52:05;19.90;99.90
17726;DHT22;8983;53.156;17.960;2023-07-31T06:54:33;19.90;99.90
17726;DHT22;8983;53.156;17.960;2023-07-31T06:57:01;20.00;99.90
17726;DHT22;8983;53.156;17.960;2023-07-31T06:59:30;20.10;99.90
17726;DHT22;8983;53.156;17.960;2023-07-31T07:01:58;20.20;99.90
17726;DHT22;8983;53.156;17.960;2023-07-31T07:04:26;20.20;99.90
17726;DHT22;8983;53.156;17.960;2023-07-31T07:06:54;20.30;99.90
17726;DHT22;8983;53.156;17.960;2023-07-31T07:09:23;20.30;99.90
17726;DHT22;8983;53.156;17.960;2023-07-31T07:11:51;20.40;99.90
17726;DHT22;8983;53.156;17.960;2023-07-31T07:14:20;20.40;99.90
17726;DHT22;8983;53.156;17.960;2023-07-31T07:16:50;20.50;99.90
17726;DHT22;8983;53.156;17.960;2023-07-31T07:19:19;20.50;99.90
17726;DHT22;8983;53.156;17.960;2023-07-31T07:21:47;20.50;99.90
17726;DHT22;8983;53.156;17.960;2023-07-31T07:24:16;20.40;99.90
17726;DHT22;8983;53.156;17.960;2023-07-31T07:26:45;20.40;99.90
17726;DHT22;8983;53.156;17.960;2023-07-31T07:29:13;20.40;99.90
17726;DHT22;8983;53.156;17.960;2023-07-31T07:31:42;20.50;99.90
17726;DHT22;8983;53.156;17.960;2023-07-31T07:34:10;20.50;99.90
17726;DHT22;8983;53.156;17.960;2023-07-31T07:36:38;20.50;99.90
17726;DHT22;8983;53.156;17.960;2023-07-31T07:39:06;20.50;99.90
17726;DHT22;8983;53.156;17.960;2023-07-31T07:41:34;20.50;99.90
17726;DHT22;8983;53.156;17.960;2023-07-31T07:44:04;20.60;99.90
17726;DHT22;8983;53.156;17.960;2023-07-31T07:46:33;20.60;99.90
17726;DHT22;8983;53.156;17.960;2023-07-31T07:49:01;20.70;99.90
17726;DHT22;8983;53.156;17.960;2023-07-31T07:51:29;20.70;99.90
17726;DHT22;8983;53.156;17.960;2023-07-31T07:53:58;20.50;99.90
17726;DHT22;8983;53.156;17.960;2023-07-31T07:56:27;20.80;99.90
17726;DHT22;8983;53.156;17.960;2023-07-31T07:58:55;20.70;99.90
17726;DHT22;8983;53.156;17.960;2023-07-31T08:01:25;20.70;99.90
17726;DHT22;8983;53.156;17.960;2023-07-31T08:03:53;20.80;99.90
17726;DHT22;8983;53.156;17.960;2023-07-31T08:06:21;20.80;99.90
17726;DHT22;8983;53.156;17.960;2023-07-31T08:08:49;20.80;99.90
17726;DHT22;8983;53.156;17.960;2023-07-31T08:11:17;20.90;99.90
17726;DHT22;8983;53.156;17.960;2023-07-31T08:13:46;21.00;99.90
17726;DHT22;8983;53.156;17.960;2023-07-31T08:16:14;21.00;99.90
17726;DHT22;8983;53.156;17.960;2023-07-31T08:18:43;21.00;99.90
17726;DHT22;8983;53.156;17.960;2023-07-31T08:21:11;21.10;99.90
17726;DHT22;8983;53.156;17.960;2023-07-31T08:23:39;21.10;99.90
17726;DHT22;8983;53.156;17.960;2023-07-31T08:26:08;21.20;99.90
17726;DHT22;8983;53.156;17.960;2023-07-31T08:28:36;21.20;99.90
17726;DHT22;8983;53.156;17.960;2023-07-31T08:31:04;21.20;99.90
17726;DHT22;8983;53.156;17.960;2023-07-31T08:33:32;21.10;99.90
17726;DHT22;8983;53.156;17.960;2023-07-31T08:36:01;21.10;99.90
17726;DHT22;8983;53.156;17.960;2023-07-31T08:38:29;21.10;99.90
17726;DHT22;8983;53.156;17.960;2023-07-31T08:40:58;21.20;99.90
17726;DHT22;8983;53.156;17.960;2023-07-31T08:43:26;21.30;99.90
17726;DHT22;8983;53.156;17.960;2023-07-31T08:45:55;21.40;99.90
17726;DHT22;8983;53.156;17.960;2023-07-31T08:48:23;21.50;99.90
17726;DHT22;8983;53.156;17.960;2023-07-31T08:50:52;21.50;99.90
17726;DHT22;8983;53.156;17.960;2023-07-31T08:53:22;21.60;99.90
17726;DHT22;8983;53.156;17.960;2023-07-31T08:55:50;21.60;99.90
17726;DHT22;8983;53.156;17.960;2023-07-31T08:58:20;21.60;99.90
17726;DHT22;8983;53.156;17.960;2023-07-31T09:00:49;21.60;99.90
17726;DHT22;8983;53.156;17.960;2023-07-31T09:03:22;21.70;99.90
17726;DHT22;8983;53.156;17.960;2023-07-31T09:05:51;21.60;99.90
17726;DHT22;8983;53.156;17.960;2023-07-31T09:08:22;21.70;99.90
17726;DHT22;8983;53.156;17.960;2023-07-31T09:10:50;21.80;99.90
17726;DHT22;8983;53.156;17.960;2023-07-31T09:13:22;21.90;99.90
17726;DHT22;8983;53.156;17.960;2023-07-31T09:15:51;21.90;99.90
17726;DHT22;8983;53.156;17.960;2023-07-31T09:18:19;21.90;99.90
17726;DHT22;8983;53.156;17.960;2023-07-31T09:21:00;22.00;99.90
17726;DHT22;8983;53.156;17.960;2023-07-31T09:23:41;22.10;99.90
17726;DHT22;8983;53.156;17.960;2023-07-31T09:26:10;22.10;99.90
17726;DHT22;8983;53.156;17.960;2023-07-31T09:28:38;22.10;99.90
17726;DHT22;8983;53.156;17.960;2023-07-31T09:31:06;22.10;99.90
17726;DHT22;8983;53.156;17.960;2023-07-31T09:33:54;22.00;99.90
17726;DHT22;8983;53.156;17.960;2023-07-31T09:36:23;21.90;99.90
17726;DHT22;8983;53.156;17.960;2023-07-31T09:38:52;21.80;99.90
17726;DHT22;8983;53.156;17.960;2023-07-31T09:41:20;21.80;99.90
17726;DHT22;8983;53.156;17.960;2023-07-31T09:43:53;21.90;99.90
17726;DHT22;8983;53.156;17.960;2023-07-31T09:46:21;22.00;99.90
17726;DHT22;8983;53.156;17.960;2023-07-31T09:48:49;22.00;99.90
17726;DHT22;8983;53.156;17.960;2023-07-31T09:51:26;22.20;99.90
17726;DHT22;8983;53.156;17.960;2023-07-31T09:53:55;22.30;99.90
17726;DHT22;8983;53.156;17.960;2023-07-31T09:56:23;22.20;99.90
17726;DHT22;8983;53.156;17.960;2023-07-31T09:58:52;22.10;99.90
17726;DHT22;8983;53.156;17.960;2023-07-31T10:01:21;21.90;99.90
17726;DHT22;8983;53.156;17.960;2023-07-31T10:03:49;21.70;99.90
17726;DHT22;8983;53.156;17.960;2023-07-31T10:06:18;21.40;99.90
17726;DHT22;8983;53.156;17.960;2023-07-31T10:08:47;21.00;99.90
17726;DHT22;8983;53.156;17.960;2023-07-31T10:11:19;20.60;99.90
17726;DHT22;8983;53.156;17.960;2023-07-31T10:13:47;20.30;99.90
17726;DHT22;8983;53.156;17.960;2023-07-31T10:16:16;20.10;99.90
17726;DHT22;8983;53.156;17.960;2023-07-31T10:18:45;19.90;99.90
17726;DHT22;8983;53.156;17.960;2023-07-31T10:21:14;19.80;99.90
17726;DHT22;8983;53.156;17.960;2023-07-31T10:23:43;19.80;99.90
17726;DHT22;8983;53.156;17.960;2023-07-31T10:26:13;19.90;99.90
17726;DHT22;8983;53.156;17.960;2023-07-31T10:28:44;19.80;99.90
17726;DHT22;8983;53.156;17.960;2023-07-31T10:31:13;19.90;99.90
17726;DHT22;8983;53.156;17.960;2023-07-31T10:33:41;19.90;99.90
17726;DHT22;8983;53.156;17.960;2023-07-31T10:36:13;19.90;99.90
17726;DHT22;8983;53.156;17.960;2023-07-31T10:38:41;19.90;99.90
17726;DHT22;8983;53.156;17.960;2023-07-31T10:41:10;19.90;99.90
17726;DHT22;8983;53.156;17.960;2023-07-31T10:43:38;20.20;99.90
17726;DHT22;8983;53.156;17.960;2023-07-31T10:46:08;20.30;99.90
17726;DHT22;8983;53.156;17.960;2023-07-31T10:48:37;20.30;99.90
17726;DHT22;8983;53.156;17.960;2023-07-31T10:51:08;20.50;99.90
17726;DHT22;8983;53.156;17.960;2023-07-31T10:53:38;20.70;99.90
17726;DHT22;8983;53.156;17.960;2023-07-31T10:56:08;21.00;99.90
17726;DHT22;8983;53.156;17.960;2023-07-31T10:58:36;21.10;99.90
17726;DHT22;8983;53.156;17.960;2023-07-31T11:01:05;21.20;99.90
17726;DHT22;8983;53.156;17.960;2023-07-31T11:03:46;21.30;99.90
17726;DHT22;8983;53.156;17.960;2023-07-31T11:06:16;21.50;99.90
17726;DHT22;8983;53.156;17.960;2023-07-31T11:08:47;21.50;99.90
17726;DHT22;8983;53.156;17.960;2023-07-31T11:11:16;21.50;99.90
17726;DHT22;8983;53.156;17.960;2023-07-31T11:13:46;21.50;99.90
17726;DHT22;8983;53.156;17.960;2023-07-31T11:16:17;21.30;99.90
17726;DHT22;8983;53.156;17.960;2023-07-31T11:18:48;21.30;99.90
17726;DHT22;8983;53.156;17.960;2023-07-31T11:21:18;21.20;99.90
17726;DHT22;8983;53.156;17.960;2023-07-31T11:23:46;21.20;99.90
17726;DHT22;8983;53.156;17.960;2023-07-31T11:26:15;21.10;99.90
17726;DHT22;8983;53.156;17.960;2023-07-31T11:28:45;21.10;99.90
17726;DHT22;8983;53.156;17.960;2023-07-31T11:31:14;21.00;99.90
17726;DHT22;8983;53.156;17.960;2023-07-31T11:33:42;20.90;99.90
17726;DHT22;8983;53.156;17.960;2023-07-31T11:36:16;20.80;99.90
17726;DHT22;8983;53.156;17.960;2023-07-31T11:38:44;20.70;99.90
17726;DHT22;8983;53.156;17.960;2023-07-31T11:41:14;20.50;99.90
17726;DHT22;8983;53.156;17.960;2023-07-31T11:43:42;20.40;99.90
17726;DHT22;8983;53.156;17.960;2023-07-31T11:46:10;20.40;99.90
17726;DHT22;8983;53.156;17.960;2023-07-31T11:48:39;20.40;99.90
17726;DHT22;8983;53.156;17.960;2023-07-31T11:51:09;20.70;99.90
17726;DHT22;8983;53.156;17.960;2023-07-31T11:53:42;21.00;99.90
17726;DHT22;8983;53.156;17.960;2023-07-31T11:56:13;21.20;99.90
17726;DHT22;8983;53.156;17.960;2023-07-31T11:58:43;21.50;99.90
17726;DHT22;8983;53.156;17.960;2023-07-31T12:03:44;22.00;99.90
17726;DHT22;8983;53.156;17.960;2023-07-31T12:06:13;22.20;99.90
17726;DHT22;8983;53.156;17.960;2023-07-31T12:08:43;22.20;99.90
17726;DHT22;8983;53.156;17.960;2023-07-31T12:11:11;22.30;99.90
17726;DHT22;8983;53.156;17.960;2023-07-31T12:13:40;22.20;99.90
17726;DHT22;8983;53.156;17.960;2023-07-31T12:16:08;22.00;99.90
17726;DHT22;8983;53.156;17.960;2023-07-31T12:18:38;21.80;99.90
17726;DHT22;8983;53.156;17.960;2023-07-31T12:21:07;21.60;99.90
17726;DHT22;8983;53.156;17.960;2023-07-31T12:23:36;21.50;99.90
17726;DHT22;8983;53.156;17.960;2023-07-31T12:26:07;21.40;99.90
17726;DHT22;8983;53.156;17.960;2023-07-31T12:28:36;21.40;99.90
17726;DHT22;8983;53.156;17.960;2023-07-31T12:31:05;21.40;99.90
17726;DHT22;8983;53.156;17.960;2023-07-31T12:33:34;21.40;99.90
17726;DHT22;8983;53.156;17.960;2023-07-31T12:36:04;21.40;99.90
17726;DHT22;8983;53.156;17.960;2023-07-31T12:38:34;21.30;99.90
17726;DHT22;8983;53.156;17.960;2023-07-31T12:41:02;21.10;99.90
17726;DHT22;8983;53.156;17.960;2023-07-31T12:43:32;21.00;99.90
17726;DHT22;8983;53.156;17.960;2023-07-31T12:46:00;21.00;99.90
17726;DHT22;8983;53.156;17.960;2023-07-31T12:48:28;20.90;99.90
17726;DHT22;8983;53.156;17.960;2023-07-31T12:50:56;20.70;99.90
17726;DHT22;8983;53.156;17.960;2023-07-31T12:53:25;20.50;99.90
17726;DHT22;8983;53.156;17.960;2023-07-31T12:55:54;20.30;99.90
17726;DHT22;8983;53.156;17.960;2023-07-31T12:58:22;20.30;99.90
17726;DHT22;8983;53.156;17.960;2023-07-31T13:00:52;20.30;99.90
17726;DHT22;8983;53.156;17.960;2023-07-31T13:03:20;20.30;99.90
17726;DHT22;8983;53.156;17.960;2023-07-31T13:05:48;20.50;99.90
17726;DHT22;8983;53.156;17.960;2023-07-31T13:08:17;20.40;99.90
17726;DHT22;8983;53.156;17.960;2023-07-31T13:10:45;20.40;99.90
17726;DHT22;8983;53.156;17.960;2023-07-31T13:13:13;20.50;99.90
17726;DHT22;8983;53.156;17.960;2023-07-31T13:15:41;20.70;99.90
17726;DHT22;8983;53.156;17.960;2023-07-31T13:18:11;20.70;99.90
17726;DHT22;8983;53.156;17.960;2023-07-31T13:20:39;20.60;99.90
17726;DHT22;8983;53.156;17.960;2023-07-31T13:23:07;20.50;99.90
17726;DHT22;8983;53.156;17.960;2023-07-31T13:25:35;20.40;99.90
17726;DHT22;8983;53.156;17.960;2023-07-31T13:28:03;20.40;99.90
17726;DHT22;8983;53.156;17.960;2023-07-31T13:30:32;20.40;99.90
17726;DHT22;8983;53.156;17.960;2023-07-31T13:33:00;20.40;99.90
17726;DHT22;8983;53.156;17.960;2023-07-31T13:35:30;20.50;99.90
17726;DHT22;8983;53.156;17.960;2023-07-31T13:37:59;20.40;99.90
17726;DHT22;8983;53.156;17.960;2023-07-31T13:40:27;20.60;99.90
17726;DHT22;8983;53.156;17.960;2023-07-31T13:42:55;20.60;99.90
17726;DHT22;8983;53.156;17.960;2023-07-31T13:45:23;20.60;99.90
17726;DHT22;8983;53.156;17.960;2023-07-31T13:47:51;20.50;99.90
17726;DHT22;8983;53.156;17.960;2023-07-31T13:50:19;20.50;99.90
17726;DHT22;8983;53.156;17.960;2023-07-31T13:52:50;20.50;99.90
17726;DHT22;8983;53.156;17.960;2023-07-31T13:55:18;20.40;99.90
17726;DHT22;8983;53.156;17.960;2023-07-31T13:57:47;20.40;99.90
17726;DHT22;8983;53.156;17.960;2023-07-31T14:00:15;20.50;99.90
17726;DHT22;8983;53.156;17.960;2023-07-31T14:02:43;20.40;99.90
17726;DHT22;8983;53.156;17.960;2023-07-31T14:05:12;20.50;99.90
17726;DHT22;8983;53.156;17.960;2023-07-31T14:07:40;20.60;99.90
17726;DHT22;8983;53.156;17.960;2023-07-31T14:10:09;20.50;99.90
17726;DHT22;8983;53.156;17.960;2023-07-31T14:12:37;20.50;99.90
17726;DHT22;8983;53.156;17.960;2023-07-31T14:15:09;20.40;99.90
17726;DHT22;8983;53.156;17.960;2023-07-31T14:17:38;20.40;99.90
17726;DHT22;8983;53.156;17.960;2023-07-31T14:20:07;20.40;99.90
17726;DHT22;8983;53.156;17.960;2023-07-31T14:22:36;20.40;99.90
17726;DHT22;8983;53.156;17.960;2023-07-31T14:25:05;20.50;99.90
17726;DHT22;8983;53.156;17.960;2023-07-31T14:27:35;20.50;99.90
17726;DHT22;8983;53.156;17.960;2023-07-31T14:30:03;20.50;99.90
17726;DHT22;8983;53.156;17.960;2023-07-31T14:32:31;20.50;99.90
17726;DHT22;8983;53.156;17.960;2023-07-31T14:34:59;20.40;99.90
17726;DHT22;8983;53.156;17.960;2023-07-31T14:37:36;20.60;99.90
17726;DHT22;8983;53.156;17.960;2023-07-31T14:40:06;20.60;99.90
17726;DHT22;8983;53.156;17.960;2023-07-31T14:42:35;20.60;99.90
17726;DHT22;8983;53.156;17.960;2023-07-31T14:45:04;20.50;99.90
17726;DHT22;8983;53.156;17.960;2023-07-31T14:47:33;20.60;99.90
17726;DHT22;8983;53.156;17.960;2023-07-31T14:50:02;20.70;99.90
17726;DHT22;8983;53.156;17.960;2023-07-31T14:52:30;20.50;99.90
17726;DHT22;8983;53.156;17.960;2023-07-31T14:54:58;20.50;99.90
17726;DHT22;8983;53.156;17.960;2023-07-31T14:57:26;20.70;99.90
17726;DHT22;8983;53.156;17.960;2023-07-31T14:59:56;20.80;99.90
17726;DHT22;8983;53.156;17.960;2023-07-31T15:02:26;20.90;99.90
17726;DHT22;8983;53.156;17.960;2023-07-31T15:04:54;21.20;99.90
17726;DHT22;8983;53.156;17.960;2023-07-31T15:07:22;21.20;99.90
17726;DHT22;8983;53.156;17.960;2023-07-31T15:09:50;21.40;99.90
17726;DHT22;8983;53.156;17.960;2023-07-31T15:12:18;21.60;99.90
17726;DHT22;8983;53.156;17.960;2023-07-31T15:14:47;22.00;99.90
17726;DHT22;8983;53.156;17.960;2023-07-31T15:17:17;22.30;99.90
17726;DHT22;8983;53.156;17.960;2023-07-31T15:19:45;22.50;99.90
17726;DHT22;8983;53.156;17.960;2023-07-31T15:22:13;22.40;99.90
17726;DHT22;8983;53.156;17.960;2023-07-31T15:24:41;22.30;99.90
17726;DHT22;8983;53.156;17.960;2023-07-31T15:27:09;22.20;99.90
17726;DHT22;8983;53.156;17.960;2023-07-31T15:29:37;22.00;99.90
17726;DHT22;8983;53.156;17.960;2023-07-31T15:32:06;21.80;99.90
17726;DHT22;8983;53.156;17.960;2023-07-31T15:34:36;21.60;99.90
17726;DHT22;8983;53.156;17.960;2023-07-31T15:37:04;21.40;99.90
17726;DHT22;8983;53.156;17.960;2023-07-31T15:39:34;21.40;99.90
17726;DHT22;8983;53.156;17.960;2023-07-31T15:42:02;21.40;99.90